createdAt,value
2022-12-18T00:00:40.115Z,-5.06
2022-12-18T00:03:08.035Z,-5.08
2022-12-18T00:05:35.195Z,-5.13
2022-12-18T00:08:01.607Z,-5.25
2022-12-18T00:10:28.609Z,-5.34
2022-12-18T00:12:55.064Z,-5.38
2022-12-18T00:15:21.376Z,-5.39
2022-12-18T00:17:47.665Z,-5.39
2022-12-18T00:20:15.395Z,-5.38
2022-12-18T00:22:41.696Z,-5.37
2022-12-18T00:25:08.490Z,-5.38
2022-12-18T00:27:34.800Z,-5.37
2022-12-18T00:30:01.140Z,-5.44
2022-12-18T00:32:27.454Z,-5.53
2022-12-18T00:34:53.762Z,-5.53
2022-12-18T00:37:21.461Z,-5.49
2022-12-18T00:39:49.136Z,-5.51
2022-12-18T00:42:15.448Z,-5.54
2022-12-18T00:44:41.734Z,-5.50
2022-12-18T00:47:08.046Z,-5.49
2022-12-18T00:49:34.322Z,-5.47
2022-12-18T00:52:00.780Z,-5.41
2022-12-18T00:54:28.517Z,-5.38
2022-12-18T00:56:54.813Z,-5.38
2022-12-18T00:59:21.164Z,-5.39
2022-12-18T01:01:48.267Z,-5.38
2022-12-18T01:04:14.883Z,-5.38
2022-12-18T01:06:41.193Z,-5.43
2022-12-18T01:09:07.490Z,-5.49
2022-12-18T01:11:35.079Z,-5.63
2022-12-18T01:14:01.568Z,-5.67
2022-12-18T01:16:28.033Z,-5.74
2022-12-18T01:18:55.173Z,-5.74
2022-12-18T01:21:21.863Z,-5.72
2022-12-18T01:23:51.545Z,-5.71
2022-12-18T01:26:17.857Z,-5.72
2022-12-18T01:28:45.472Z,-5.77
2022-12-18T01:31:16.915Z,-5.79
2022-12-18T01:33:43.499Z,-5.89
2022-12-18T01:36:15.223Z,-5.83
2022-12-18T01:38:41.596Z,-5.87
2022-12-18T01:41:09.118Z,-5.86
2022-12-18T01:43:42.615Z,-5.85
2022-12-18T01:46:10.753Z,-5.83
2022-12-18T01:48:37.361Z,-5.84
2022-12-18T01:51:03.809Z,-5.81
2022-12-18T01:53:30.189Z,-5.85
2022-12-18T01:55:58.266Z,-5.86
2022-12-18T01:58:30.070Z,-5.87
2022-12-18T02:00:56.485Z,-5.85
2022-12-18T02:03:24.235Z,-5.83
2022-12-18T02:05:57.939Z,-5.82
2022-12-18T02:08:28.234Z,-5.83
2022-12-18T02:10:57.936Z,-5.90
2022-12-18T02:13:26.599Z,-5.96
2022-12-18T02:15:59.347Z,-6.00
2022-12-18T02:18:29.495Z,-6.05
2022-12-18T02:20:59.830Z,-6.10
2022-12-18T02:23:37.590Z,-6.10
2022-12-18T02:26:08.425Z,-6.12
2022-12-18T02:28:36.799Z,-6.13
2022-12-18T02:31:05.444Z,-6.16
2022-12-18T02:33:32.172Z,-6.12
2022-12-18T02:35:59.799Z,-6.10
2022-12-18T02:38:26.475Z,-6.09
2022-12-18T02:40:54.412Z,-6.06
2022-12-18T02:43:22.088Z,-6.11
2022-12-18T02:45:49.563Z,-6.15
2022-12-18T02:48:16.398Z,-6.15
2022-12-18T02:50:46.149Z,-6.17
2022-12-18T02:53:18.277Z,-6.15
2022-12-18T02:55:52.462Z,-6.14
2022-12-18T02:58:20.215Z,-6.15
2022-12-18T03:00:52.351Z,-6.22
2022-12-18T03:03:20.765Z,-6.25
2022-12-18T03:05:50.551Z,-6.38
2022-12-18T03:08:19.693Z,-6.35
2022-12-18T03:10:49.394Z,-6.40
2022-12-18T03:13:18.175Z,-6.38
2022-12-18T03:15:46.317Z,-6.39
2022-12-18T03:18:17.157Z,-6.42
2022-12-18T03:20:44.474Z,-6.40
2022-12-18T03:23:12.512Z,-6.43
2022-12-18T03:25:41.042Z,-6.42
2022-12-18T03:28:09.773Z,-6.52
2022-12-18T03:30:38.738Z,-6.50
2022-12-18T03:33:08.435Z,-6.50
2022-12-18T03:35:37.295Z,-6.49
2022-12-18T03:38:03.675Z,-6.52
2022-12-18T03:40:32.414Z,-6.49
2022-12-18T03:43:03.002Z,-6.50
2022-12-18T03:45:33.467Z,-6.48
2022-12-18T03:48:02.278Z,-6.44
2022-12-18T03:50:33.553Z,-6.47
2022-12-18T03:53:06.455Z,-6.55
2022-12-18T03:55:34.626Z,-6.61
2022-12-18T03:58:02.438Z,-6.65
2022-12-18T04:00:29.966Z,-6.64
2022-12-18T04:02:57.591Z,-6.62
2022-12-18T04:05:25.574Z,-6.66
2022-12-18T04:07:52.453Z,-6.62
2022-12-18T04:10:20.598Z,-6.56
2022-12-18T04:12:47.225Z,-6.60
2022-12-18T04:15:14.032Z,-6.55
2022-12-18T04:17:44.274Z,-6.49
2022-12-18T04:20:10.787Z,-6.51
2022-12-18T04:22:37.098Z,-6.55
2022-12-18T04:25:03.598Z,-6.55
2022-12-18T04:27:31.267Z,-6.64
2022-12-18T04:29:57.577Z,-6.64
2022-12-18T04:32:24.034Z,-6.68
2022-12-18T04:34:50.353Z,-6.71
2022-12-18T04:37:16.641Z,-6.75
2022-12-18T04:39:42.926Z,-6.78
2022-12-18T04:42:09.229Z,-6.72
2022-12-18T04:44:36.859Z,-6.70
2022-12-18T04:47:03.250Z,-6.63
2022-12-18T04:49:29.562Z,-6.53
2022-12-18T04:51:55.825Z,-6.51
2022-12-18T04:54:22.093Z,-6.51
2022-12-18T04:56:48.445Z,-6.50
2022-12-18T04:59:14.746Z,-6.47
2022-12-18T05:01:42.489Z,-6.44
2022-12-18T05:04:09.447Z,-6.39
2022-12-18T05:06:35.791Z,-6.37
2022-12-18T05:09:02.226Z,-6.36
2022-12-18T05:11:28.519Z,-6.38
2022-12-18T05:13:54.825Z,-6.37
2022-12-18T05:16:21.229Z,-6.40
2022-12-18T05:18:48.908Z,-6.47
2022-12-18T05:21:15.208Z,-6.51
2022-12-18T05:23:41.921Z,-6.52
2022-12-18T05:26:08.423Z,-6.57
2022-12-18T05:28:36.139Z,-6.62
2022-12-18T05:31:03.332Z,-6.69
2022-12-18T05:33:31.123Z,-6.70
2022-12-18T05:36:03.632Z,-6.72
2022-12-18T05:38:30.934Z,-6.73
2022-12-18T05:40:57.694Z,-6.70
2022-12-18T05:43:24.231Z,-6.76
2022-12-18T05:45:50.877Z,-6.76
2022-12-18T05:48:17.794Z,-6.76
2022-12-18T05:50:45.511Z,-6.73
2022-12-18T05:53:13.524Z,-6.72
2022-12-18T05:55:40.710Z,-6.76
2022-12-18T05:58:07.907Z,-6.78
2022-12-18T06:00:35.149Z,-6.73
2022-12-18T06:03:01.678Z,-6.74
2022-12-18T06:05:28.417Z,-6.76
2022-12-18T06:07:54.703Z,-6.77
2022-12-18T06:10:22.476Z,-6.73
2022-12-18T06:12:48.800Z,-6.71
2022-12-18T06:15:15.169Z,-6.66
2022-12-18T06:17:42.523Z,-6.65
2022-12-18T06:20:09.396Z,-6.65
2022-12-18T06:22:35.715Z,-6.67
2022-12-18T06:25:02.032Z,-6.63
2022-12-18T06:27:29.675Z,-6.55
2022-12-18T06:29:56.152Z,-6.51
2022-12-18T06:32:22.593Z,-6.46
2022-12-18T06:34:48.876Z,-6.44
2022-12-18T06:37:15.178Z,-6.41
2022-12-18T06:39:41.453Z,-6.38
2022-12-18T06:42:07.743Z,-6.35
2022-12-18T06:44:35.397Z,-6.32
2022-12-18T06:47:01.677Z,-6.31
2022-12-18T06:49:30.647Z,-6.32
2022-12-18T06:51:57.158Z,-6.29
2022-12-18T06:54:23.532Z,-6.28
2022-12-18T06:56:50.312Z,-6.29
2022-12-18T06:59:17.340Z,-6.34
2022-12-18T07:01:45.227Z,-6.43
2022-12-18T07:04:11.671Z,-6.43
2022-12-18T07:06:37.947Z,-6.40
2022-12-18T07:09:04.352Z,-6.36
2022-12-18T07:11:32.906Z,-6.38
2022-12-18T07:14:00.556Z,-6.36
2022-12-18T07:16:27.020Z,-6.36
2022-12-18T07:18:55.408Z,-6.36
2022-12-18T07:21:22.391Z,-6.41
2022-12-18T07:23:48.896Z,-6.44
2022-12-18T07:26:16.734Z,-6.44
2022-12-18T07:28:43.055Z,-6.47
2022-12-18T07:31:10.106Z,-6.45
2022-12-18T07:33:38.725Z,-6.45
2022-12-18T07:36:07.875Z,-6.50
2022-12-18T07:38:34.841Z,-6.65
2022-12-18T07:41:01.575Z,-6.68
2022-12-18T07:43:27.890Z,-6.63
2022-12-18T07:45:54.249Z,-6.59
2022-12-18T07:48:20.635Z,-6.52
2022-12-18T07:50:47.065Z,-6.47
2022-12-18T07:53:14.710Z,-6.50
2022-12-18T07:56:05.491Z,-6.51
2022-12-18T07:58:27.446Z,-6.55
2022-12-18T08:00:53.824Z,-6.50
2022-12-18T08:03:20.713Z,-6.49
2022-12-18T08:05:48.745Z,-6.38
2022-12-18T08:08:16.384Z,-6.30
2022-12-18T08:10:42.695Z,-6.23
2022-12-18T08:13:08.971Z,-6.21
2022-12-18T08:15:35.273Z,-6.13
2022-12-18T08:18:01.578Z,-6.10
2022-12-18T08:20:28.085Z,-6.07
2022-12-18T08:22:54.409Z,-5.97
2022-12-18T08:25:22.087Z,-5.91
2022-12-18T08:27:48.603Z,-5.87
2022-12-18T08:30:14.952Z,-5.88
2022-12-18T08:32:41.320Z,-5.75
2022-12-18T08:35:08.040Z,-5.68
2022-12-18T08:37:34.379Z,-5.61
2022-12-18T08:40:00.653Z,-5.63
2022-12-18T08:42:28.278Z,-5.55
2022-12-18T08:44:54.584Z,-5.47
2022-12-18T08:47:20.904Z,-5.44
2022-12-18T08:49:47.218Z,-5.37
2022-12-18T08:52:13.521Z,-5.32
2022-12-18T08:54:39.810Z,-5.29
2022-12-18T08:57:06.121Z,-5.23
2022-12-18T08:59:33.743Z,-5.26
2022-12-18T09:02:00.165Z,-5.22
2022-12-18T09:04:26.531Z,-5.14
2022-12-18T09:06:52.815Z,-5.04
2022-12-18T09:09:19.090Z,-4.99
2022-12-18T09:11:45.404Z,-4.95
2022-12-18T09:14:11.797Z,-4.85
2022-12-18T09:16:39.512Z,-4.79
2022-12-18T09:19:06.246Z,-4.69
2022-12-18T09:21:36.018Z,-4.66
2022-12-18T09:24:03.562Z,-4.60
2022-12-18T09:26:29.899Z,-4.54
2022-12-18T09:28:56.196Z,-4.46
2022-12-18T09:31:23.649Z,-4.41
2022-12-18T09:33:51.351Z,-4.32
2022-12-18T09:36:18.439Z,-4.25
2022-12-18T09:38:44.995Z,-4.19
2022-12-18T09:41:18.991Z,-4.14
2022-12-18T09:43:47.908Z,-4.08
2022-12-18T09:46:18.285Z,-4.03
2022-12-18T09:48:47.054Z,-4.00
2022-12-18T09:51:16.632Z,-3.97
2022-12-18T09:53:47.464Z,-3.91
2022-12-18T09:56:17.052Z,-3.86
2022-12-18T09:58:47.439Z,-3.81
2022-12-18T10:01:15.600Z,-3.71
2022-12-18T10:03:41.929Z,-3.65
2022-12-18T10:06:12.420Z,-3.57
2022-12-18T10:08:44.482Z,-3.52
2022-12-18T10:11:28.375Z,-3.47
2022-12-18T10:13:58.002Z,-3.35
2022-12-18T10:16:28.817Z,-3.35
2022-12-18T10:19:04.623Z,-3.23
2022-12-18T10:21:32.898Z,-3.19
2022-12-18T10:24:03.910Z,-3.14
2022-12-18T10:26:32.675Z,-3.10
2022-12-18T10:29:05.338Z,-3.02
2022-12-18T10:31:32.180Z,-3.01
2022-12-18T10:33:58.534Z,-2.97
2022-12-18T10:36:25.453Z,-2.88
2022-12-18T10:38:52.151Z,-2.84
2022-12-18T10:41:26.881Z,-2.81
2022-12-18T10:44:11.412Z,-2.78
2022-12-18T10:46:37.863Z,-2.74
2022-12-18T10:49:04.863Z,-2.72
2022-12-18T10:51:32.176Z,-2.75
2022-12-18T10:54:00.501Z,-2.68
2022-12-18T10:56:30.066Z,-2.64
2022-12-18T10:58:59.929Z,-2.67
2022-12-18T11:01:26.941Z,-2.61
2022-12-18T11:04:02.717Z,-2.60
2022-12-18T11:06:29.554Z,-2.48
2022-12-18T11:08:59.260Z,-2.47
2022-12-18T11:11:26.089Z,-2.44
2022-12-18T11:13:58.424Z,-2.43
2022-12-18T11:16:24.982Z,-2.42
2022-12-18T11:18:51.446Z,-2.40
2022-12-18T11:21:17.762Z,-2.39
2022-12-18T11:23:47.742Z,-2.36
2022-12-18T11:26:14.267Z,-2.35
2022-12-18T11:28:41.867Z,-2.29
2022-12-18T11:31:21.631Z,-2.27
2022-12-18T11:34:19.599Z,-2.22
2022-12-18T11:36:39.543Z,-2.21
2022-12-18T11:39:10.519Z,-2.18
2022-12-18T11:41:40.751Z,-2.13
2022-12-18T11:44:10.520Z,-2.04
2022-12-18T11:46:40.851Z,-2.08
2022-12-18T11:49:10.828Z,-2.05
2022-12-18T11:51:40.474Z,-2.02
2022-12-18T11:54:12.557Z,-1.99
2022-12-18T11:56:40.994Z,-1.96
2022-12-18T11:59:13.084Z,-1.92
2022-12-18T12:01:46.642Z,-1.90
2022-12-18T12:04:23.138Z,-1.85
2022-12-18T12:06:58.642Z,-1.84
2022-12-18T12:09:33.102Z,-1.83
2022-12-18T12:12:06.825Z,-1.76
2022-12-18T12:14:40.635Z,-1.79
2022-12-18T12:17:13.098Z,-1.76
2022-12-18T12:19:45.196Z,-1.69
2022-12-18T12:22:16.107Z,-1.68
2022-12-18T12:24:52.783Z,-1.66
2022-12-18T12:27:21.997Z,-1.64
2022-12-18T12:29:53.586Z,-1.59
2022-12-18T12:32:30.039Z,-1.59
2022-12-18T12:35:09.486Z,-1.56
2022-12-18T12:37:40.799Z,-1.43
2022-12-18T12:40:26.823Z,-1.47
2022-12-18T12:42:56.059Z,-1.37
2022-12-18T12:45:27.002Z,-1.42
2022-12-18T12:47:55.713Z,-1.39
2022-12-18T12:50:23.319Z,-1.41
2022-12-18T12:52:52.630Z,-1.36
2022-12-18T12:58:11.298Z,-1.36
2022-12-18T13:00:41.981Z,-1.32
2022-12-18T13:03:13.687Z,-1.27
2022-12-18T13:05:44.377Z,-1.24
2022-12-18T13:08:12.507Z,-1.20
2022-12-18T13:10:40.136Z,-1.20
2022-12-18T13:13:08.157Z,-1.19
2022-12-18T13:15:40.086Z,-1.17
2022-12-18T13:18:12.643Z,-1.20
2022-12-18T13:20:41.080Z,-1.20
2022-12-18T13:23:26.223Z,-1.17
2022-12-18T13:25:53.213Z,-1.13
2022-12-18T13:28:21.807Z,-1.17
2022-12-18T13:30:49.485Z,-1.16
2022-12-18T13:34:24.638Z,-1.12
2022-12-18T13:36:37.843Z,-1.12
2022-12-18T13:39:12.368Z,-1.14
2022-12-18T13:41:38.868Z,-1.12
2022-12-18T13:44:11.948Z,-1.12
2022-12-18T13:46:43.580Z,-1.12
2022-12-18T13:49:21.553Z,-1.08
2022-12-18T13:51:50.651Z,-1.12
2022-12-18T13:54:19.818Z,-1.07
2022-12-18T13:56:47.656Z,-1.07
2022-12-18T13:59:15.200Z,-1.08
2022-12-18T14:01:43.896Z,-1.10
2022-12-18T14:04:11.058Z,-1.11
2022-12-18T14:06:37.495Z,-1.06
2022-12-18T14:09:05.473Z,-1.08
2022-12-18T14:11:35.904Z,-1.04
2022-12-18T14:14:02.500Z,-1.04
2022-12-18T14:16:29.225Z,-1.04
2022-12-18T14:19:02.474Z,-1.02
2022-12-18T14:21:34.725Z,-1.01
2022-12-18T14:24:06.113Z,-1.00
2022-12-18T14:26:33.007Z,-0.99
2022-12-18T14:29:00.207Z,-1.00
2022-12-18T14:31:27.323Z,-0.97
2022-12-18T14:33:53.917Z,-0.97
2022-12-18T14:36:21.779Z,-0.95
2022-12-18T14:38:51.415Z,-0.97
2022-12-18T14:41:19.481Z,-0.98
2022-12-18T14:43:47.143Z,-0.98
2022-12-18T14:46:28.360Z,-0.99
2022-12-18T14:48:55.643Z,-1.02
2022-12-18T14:51:22.871Z,-0.98
2022-12-18T14:53:55.041Z,-0.99
2022-12-18T14:56:23.886Z,-0.98
2022-12-18T14:58:51.397Z,-0.97
2022-12-18T15:01:22.888Z,-0.97
2022-12-18T15:03:49.312Z,-0.99
2022-12-18T15:06:16.875Z,-0.99
2022-12-18T15:08:43.170Z,-0.99
2022-12-18T15:14:17.069Z,-0.98
2022-12-18T15:16:46.256Z,-1.02
2022-12-18T15:19:12.692Z,-1.03
2022-12-18T15:21:43.302Z,-1.00
2022-12-18T15:24:16.651Z,-1.02
2022-12-18T15:26:42.977Z,-1.03
2022-12-18T15:29:19.629Z,-1.03
2022-12-18T15:31:58.660Z,-1.03
2022-12-18T15:34:24.987Z,-1.03
2022-12-18T15:36:51.324Z,-0.99
2022-12-18T15:39:17.632Z,-0.99
2022-12-18T15:41:44.364Z,-0.99
2022-12-18T15:44:22.638Z,-0.99
2022-12-18T15:46:50.320Z,-0.96
2022-12-18T15:49:16.631Z,-0.99
2022-12-18T15:51:42.958Z,-0.97
2022-12-18T15:54:11.694Z,-0.98
2022-12-18T15:56:37.980Z,-0.98
2022-12-18T15:59:09.710Z,-0.97
2022-12-18T16:01:40.885Z,-0.95
2022-12-18T16:04:11.500Z,-0.97
2022-12-18T16:06:58.038Z,-0.96
2022-12-18T16:09:26.530Z,-0.98
2022-12-18T16:11:53.126Z,-1.01
2022-12-18T16:14:20.629Z,-0.97
2022-12-18T16:16:47.881Z,-1.01
2022-12-18T16:19:16.792Z,-0.96
2022-12-18T16:21:43.336Z,-0.96
2022-12-18T16:24:13.903Z,-0.97
2022-12-18T16:26:40.195Z,-0.99
2022-12-18T16:29:06.488Z,-0.99
2022-12-18T16:31:34.481Z,-0.98
2022-12-18T16:34:20.139Z,-0.97
2022-12-18T16:36:48.999Z,-0.99
2022-12-18T16:39:15.332Z,-0.97
2022-12-18T16:41:41.671Z,-1.01
2022-12-18T16:44:07.964Z,-0.99
2022-12-18T16:46:34.363Z,-1.01
2022-12-18T16:49:00.781Z,-1.02
2022-12-18T16:51:28.582Z,-0.98
2022-12-18T16:53:55.378Z,-0.96
2022-12-18T16:56:24.808Z,-0.99
2022-12-18T16:58:51.950Z,-0.96
2022-12-18T17:01:18.393Z,-0.98
2022-12-18T17:03:45.356Z,-0.98
2022-12-18T17:06:13.669Z,-0.97
2022-12-18T17:08:41.393Z,-0.95
2022-12-18T17:11:07.918Z,-0.93
2022-12-18T17:13:36.443Z,-0.98
2022-12-18T17:16:03.287Z,-0.99
2022-12-18T17:18:29.633Z,-0.98
2022-12-18T17:20:58.535Z,-0.94
2022-12-18T17:23:27.561Z,-0.96
2022-12-18T17:25:55.959Z,-0.97
2022-12-18T17:28:22.528Z,-0.95
2022-12-18T17:30:48.806Z,-0.94
2022-12-18T17:33:15.118Z,-0.96
2022-12-18T17:35:42.074Z,-0.95
2022-12-18T17:38:08.384Z,-0.94
2022-12-18T17:40:34.901Z,-0.94
2022-12-18T17:43:02.555Z,-0.94
2022-12-18T17:45:28.878Z,-0.95
2022-12-18T17:47:59.732Z,-0.95
2022-12-18T17:50:26.346Z,-0.93
2022-12-18T17:52:55.429Z,-0.93
2022-12-18T17:55:21.736Z,-0.94
2022-12-18T17:57:48.058Z,-0.92
2022-12-18T18:00:16.431Z,-0.92
2022-12-18T18:02:42.966Z,-0.91
2022-12-18T18:05:09.682Z,-0.92
2022-12-18T18:07:37.573Z,-0.89
2022-12-18T18:10:04.213Z,-0.89
2022-12-18T18:12:30.559Z,-0.89
2022-12-18T18:14:56.947Z,-0.86
2022-12-18T18:17:24.665Z,-0.85
2022-12-18T18:19:50.959Z,-0.86
2022-12-18T18:22:17.293Z,-0.83
2022-12-18T18:24:45.036Z,-0.84
2022-12-18T18:27:11.361Z,-0.83
2022-12-18T18:29:37.915Z,-0.80
2022-12-18T18:32:04.566Z,-0.80
2022-12-18T18:34:32.470Z,-0.80
2022-12-18T18:36:58.841Z,-0.78
2022-12-18T18:39:25.531Z,-0.79
2022-12-18T18:41:51.896Z,-0.78
2022-12-18T18:44:18.968Z,-0.73
2022-12-18T18:46:45.377Z,-0.76
2022-12-18T18:49:11.692Z,-0.75
2022-12-18T18:51:40.797Z,-0.76
2022-12-18T18:54:07.079Z,-0.72
2022-12-18T18:59:19.714Z,-0.71
2022-12-18T19:01:49.613Z,-0.68
2022-12-18T19:04:16.053Z,-0.69
2022-12-18T19:06:43.659Z,-0.69
2022-12-18T19:09:10.525Z,-0.66
2022-12-18T19:11:37.010Z,-0.62
2022-12-18T19:14:04.732Z,-0.66
2022-12-18T19:16:31.848Z,-0.61
2022-12-18T19:19:01.898Z,-0.58
2022-12-18T19:21:29.027Z,-0.57
2022-12-18T19:23:59.388Z,-0.57
2022-12-18T19:26:28.438Z,-0.55
2022-12-18T19:28:59.973Z,-0.52
2022-12-18T19:31:30.419Z,-0.54
2022-12-18T19:33:59.980Z,-0.54
2022-12-18T19:36:27.115Z,-0.52
2022-12-18T19:38:55.142Z,-0.48
2022-12-18T19:41:23.323Z,-0.49
2022-12-18T19:43:50.244Z,-0.49
2022-12-18T19:46:17.669Z,-0.47
2022-12-18T19:48:44.612Z,-0.46
2022-12-18T19:51:13.448Z,-0.46
2022-12-18T19:53:39.782Z,-0.44
2022-12-18T19:56:06.567Z,-0.43
2022-12-18T19:58:34.247Z,-0.40
2022-12-18T20:01:00.751Z,-0.41
2022-12-18T20:03:32.280Z,-0.39
2022-12-18T20:06:07.751Z,-0.35
2022-12-18T20:08:36.948Z,-0.36
2022-12-18T20:11:03.264Z,-0.35
2022-12-18T20:13:29.671Z,-0.34
2022-12-18T20:15:57.282Z,-0.35
2022-12-18T20:18:23.595Z,-0.32
2022-12-18T20:20:50.207Z,-0.31
2022-12-18T20:23:17.843Z,-0.31
2022-12-18T20:25:44.319Z,-0.31
2022-12-18T20:28:10.668Z,-0.30
2022-12-18T20:30:37.035Z,-0.28
2022-12-18T20:33:04.920Z,-0.30
2022-12-18T20:35:31.691Z,-0.32
2022-12-18T20:37:59.164Z,-0.30
2022-12-18T20:40:27.264Z,-0.31
2022-12-18T20:42:53.577Z,-0.31
2022-12-18T20:45:19.881Z,-0.30
2022-12-18T20:47:46.172Z,-0.29
2022-12-18T20:50:13.862Z,-0.28
2022-12-18T20:52:40.179Z,-0.27
2022-12-18T20:55:06.831Z,-0.25
2022-12-18T20:57:33.238Z,-0.24
2022-12-18T21:00:00.646Z,-0.24
2022-12-18T21:02:27.157Z,-0.24
2022-12-18T21:04:53.612Z,-0.23
2022-12-18T21:07:21.295Z,-0.23
2022-12-18T21:09:47.578Z,-0.24
2022-12-18T21:12:14.534Z,-0.23
2022-12-18T21:14:41.428Z,-0.22
2022-12-18T21:17:07.805Z,-0.23
2022-12-18T21:19:34.192Z,-0.21
2022-12-18T21:22:00.532Z,-0.20
2022-12-18T21:24:28.876Z,-0.21
2022-12-18T21:27:02.259Z,-0.19
2022-12-18T21:29:28.578Z,-0.17
2022-12-18T21:31:55.177Z,-0.15
2022-12-18T21:34:22.912Z,-0.17
2022-12-18T21:36:49.565Z,-0.15
2022-12-18T21:39:15.989Z,-0.17
2022-12-18T21:41:44.055Z,-0.15
2022-12-18T21:44:12.097Z,-0.15
2022-12-18T21:46:39.277Z,-0.13
2022-12-18T21:49:06.381Z,-0.14
2022-12-18T21:51:33.240Z,-0.14
2022-12-18T21:53:59.527Z,-0.13
2022-12-18T21:56:42.118Z,-0.15
2022-12-18T21:59:09.754Z,-0.13
2022-12-18T22:01:37.738Z,-0.10
2022-12-18T22:04:04.361Z,-0.10
2022-12-18T22:06:30.686Z,-0.10
2022-12-18T22:08:56.959Z,-0.09
2022-12-18T22:11:23.249Z,-0.09
2022-12-18T22:13:49.603Z,-0.09
2022-12-18T22:16:17.294Z,-0.09
2022-12-18T22:18:43.688Z,-0.06
2022-12-18T22:21:25.540Z,-0.10
2022-12-18T22:23:56.043Z,-0.08
2022-12-18T22:26:22.423Z,-0.11
2022-12-18T22:28:48.751Z,-0.08
2022-12-18T22:31:15.116Z,-0.06
2022-12-18T22:33:42.786Z,-0.08
2022-12-18T22:36:09.203Z,-0.07
2022-12-18T22:38:35.527Z,-0.04
2022-12-18T22:41:01.797Z,-0.06
2022-12-18T22:43:28.100Z,-0.05
2022-12-18T22:45:54.427Z,-0.05
2022-12-18T22:48:20.862Z,-0.02
2022-12-18T22:50:48.527Z,-0.03
2022-12-18T22:53:16.567Z,-0.01
2022-12-18T22:55:42.885Z,0.00
2022-12-18T22:58:09.174Z,0.02
2022-12-18T23:03:44.446Z,0.08
2022-12-18T23:06:12.139Z,0.07
2022-12-18T23:08:38.429Z,0.09
2022-12-18T23:11:05.117Z,0.08
2022-12-18T23:13:32.365Z,0.10
2022-12-18T23:15:58.734Z,0.14
2022-12-18T23:18:25.074Z,0.11
2022-12-18T23:20:51.370Z,0.15
2022-12-18T23:23:19.209Z,0.19
2022-12-18T23:25:45.486Z,0.19
2022-12-18T23:28:13.147Z,0.21
2022-12-18T23:30:39.481Z,0.22
2022-12-18T23:33:05.792Z,0.21
2022-12-18T23:35:32.283Z,0.24
2022-12-18T23:37:59.776Z,0.25
2022-12-18T23:40:28.075Z,0.25
2022-12-18T23:42:54.380Z,0.25
2022-12-18T23:45:20.660Z,0.22
2022-12-18T23:47:50.480Z,0.25
2022-12-18T23:50:17.686Z,0.27
2022-12-18T23:52:43.992Z,0.27
2022-12-18T23:55:10.305Z,0.25
2022-12-18T23:57:37.938Z,0.27
